createdAt,value
2019-01-19T00:01:02.842Z,11.77
2019-01-19T00:05:10.593Z,12.30
2019-01-19T00:08:24.180Z,11.33
2019-01-19T00:11:49.594Z,11.40
2019-01-19T00:14:40.279Z,14.77
2019-01-19T00:18:31.395Z,12.40
2019-01-19T00:21:38.424Z,18.30
2019-01-19T00:24:57.314Z,13.77
2019-01-19T00:28:19.921Z,15.50
2019-01-19T00:31:19.124Z,11.93
2019-01-19T00:34:48.221Z,14.33
2019-01-19T00:37:48.729Z,15.57
2019-01-19T00:41:16.512Z,13.07
2019-01-19T00:44:22.930Z,12.53
2019-01-19T00:47:53.389Z,13.90
2019-01-19T00:51:39.544Z,18.43
2019-01-19T00:54:38.207Z,10.93
2019-01-19T00:58:05.970Z,15.87
2019-01-19T01:00:55.480Z,11.10
2019-01-19T01:04:17.722Z,18.73
2019-01-19T01:07:59.052Z,13.67
2019-01-19T01:10:49.793Z,14.03
2019-01-19T01:14:35.920Z,12.40
2019-01-19T01:17:49.391Z,13.00
2019-01-19T01:20:49.013Z,13.32
2019-01-19T01:24:16.280Z,13.37
2019-01-19T01:27:21.048Z,11.10
2019-01-19T01:30:34.379Z,12.20
2019-01-19T01:33:50.821Z,13.83
2019-01-19T01:37:28.021Z,10.08
2019-01-19T01:40:49.360Z,11.75
2019-01-19T01:44:14.028Z,12.87
2019-01-19T01:47:54.041Z,13.27
2019-01-19T01:50:45.629Z,17.23
2019-01-19T01:54:04.412Z,16.90
2019-01-19T01:56:37.798Z,12.90
2019-01-19T02:00:08.743Z,11.77
2019-01-19T02:03:34.426Z,13.67
2019-01-19T02:07:24.570Z,15.10
2019-01-19T02:10:49.833Z,13.27
2019-01-19T02:13:47.198Z,17.20
2019-01-19T02:17:17.442Z,10.80
2019-01-19T02:20:32.839Z,13.70
2019-01-19T02:23:43.773Z,15.47
2019-01-19T02:27:43.305Z,20.03
2019-01-19T02:31:17.688Z,15.10
2019-01-19T02:34:43.360Z,11.03
2019-01-19T02:38:09.475Z,11.53
2019-01-19T02:41:22.486Z,17.87
2019-01-19T02:44:53.591Z,11.43
2019-01-19T02:48:18.193Z,18.00
2019-01-19T02:51:19.987Z,9.87
2019-01-19T02:55:09.987Z,13.57
2019-01-19T02:59:00.580Z,11.00
2019-01-19T03:02:02.857Z,11.83
2019-01-19T03:05:08.793Z,11.37
2019-01-19T03:08:11.262Z,12.83
2019-01-19T03:11:43.842Z,12.53
2019-01-19T03:15:27.419Z,9.60
2019-01-19T03:18:51.238Z,11.70
2019-01-19T03:22:13.960Z,12.27
2019-01-19T03:25:29.255Z,12.28
2019-01-19T03:28:55.148Z,13.57
2019-01-19T03:32:15.002Z,10.30
2019-01-19T03:35:34.192Z,12.93
2019-01-19T03:38:42.300Z,12.95
2019-01-19T03:42:07.474Z,9.73
2019-01-19T03:45:04.228Z,10.10
2019-01-19T03:48:07.953Z,17.17
2019-01-19T03:51:27.520Z,15.70
2019-01-19T03:54:56.030Z,13.77
2019-01-19T03:57:52.567Z,10.17
2019-01-19T04:01:11.265Z,12.00
2019-01-19T04:04:18.946Z,12.47
2019-01-19T04:07:16.660Z,11.40
2019-01-19T04:10:52.678Z,17.43
2019-01-19T04:14:18.678Z,20.97
2019-01-19T04:17:52.601Z,11.37
2019-01-19T04:21:14.940Z,11.40
2019-01-19T04:23:53.973Z,11.40
2019-01-19T04:26:44.785Z,14.03
2019-01-19T04:29:16.410Z,9.40
2019-01-19T04:31:48.054Z,12.13
2019-01-19T04:34:20.042Z,11.00
2019-01-19T04:36:52.032Z,12.33
2019-01-19T04:39:23.652Z,14.20
2019-01-19T04:41:55.715Z,10.03
2019-01-19T04:44:27.334Z,16.43
2019-01-19T04:46:58.975Z,12.30
2019-01-19T04:49:30.565Z,13.63
2019-01-19T04:52:02.270Z,12.00
2019-01-19T04:54:33.973Z,14.03
2019-01-19T04:57:06.177Z,16.43
2019-01-19T04:59:38.870Z,11.53
2019-01-19T05:02:10.596Z,17.48
2019-01-19T05:04:42.208Z,22.20
2019-01-19T05:07:13.810Z,11.28
2019-01-19T05:09:45.455Z,14.00
2019-01-19T05:12:17.872Z,14.73
2019-01-19T05:14:49.491Z,12.60
2019-01-19T05:17:21.124Z,13.67
2019-01-19T05:19:52.786Z,11.73
2019-01-19T05:22:25.607Z,13.67
2019-01-19T05:24:57.467Z,11.43
2019-01-19T05:27:31.502Z,15.77
2019-01-19T05:30:03.129Z,18.20
2019-01-19T05:32:34.995Z,13.30
2019-01-19T05:35:27.190Z,11.20
2019-01-19T05:37:58.837Z,11.53
2019-01-19T05:40:30.466Z,12.80
2019-01-19T05:43:02.754Z,11.57
2019-01-19T05:45:33.429Z,14.13
2019-01-19T05:48:02.676Z,11.57
2019-01-19T05:50:34.411Z,13.88
2019-01-19T05:53:06.230Z,15.00
2019-01-19T05:55:41.272Z,11.23
2019-01-19T05:58:12.896Z,12.80
2019-01-19T06:00:45.126Z,13.33
2019-01-19T06:03:16.743Z,18.75
2019-01-19T06:05:49.060Z,15.10
2019-01-19T06:08:20.669Z,11.47
2019-01-19T06:10:52.283Z,13.03
2019-01-19T06:13:23.905Z,12.57
2019-01-19T06:15:56.001Z,17.30
2019-01-19T06:18:29.195Z,16.17
2019-01-19T06:21:01.034Z,15.17
2019-01-19T06:23:32.731Z,11.63
2019-01-19T06:26:04.435Z,15.77
2019-01-19T06:28:37.069Z,13.67
2019-01-19T06:31:09.116Z,18.83
2019-01-19T06:33:40.819Z,19.00
2019-01-19T06:36:13.178Z,21.20
2019-01-19T06:38:44.830Z,18.77
2019-01-19T06:41:16.503Z,18.50
2019-01-19T06:43:48.147Z,13.57
2019-01-19T06:46:20.464Z,14.00
2019-01-19T06:48:54.918Z,11.73
2019-01-19T06:51:31.366Z,13.23
2019-01-19T06:54:03.251Z,13.03
2019-01-19T06:56:34.920Z,12.85
2019-01-19T06:59:09.021Z,17.83
2019-01-19T07:01:40.729Z,31.10
2019-01-19T07:04:13.077Z,36.57
2019-01-19T07:06:46.551Z,29.10
2019-01-19T07:09:18.290Z,59.70
2019-01-19T07:11:50.220Z,43.38
2019-01-19T07:14:22.439Z,37.93
2019-01-19T07:16:55.529Z,30.95
2019-01-19T07:19:27.879Z,26.97
2019-01-19T07:21:59.534Z,25.03
2019-01-19T07:24:32.651Z,20.20
2019-01-19T07:27:15.613Z,25.80
2019-01-19T07:29:48.438Z,48.57
2019-01-19T07:32:20.134Z,48.92
2019-01-19T07:34:52.262Z,36.58
2019-01-19T07:37:23.922Z,25.08
2019-01-19T07:39:55.548Z,19.13
2019-01-19T07:42:27.162Z,17.43
2019-01-19T07:44:58.843Z,15.13
2019-01-19T07:47:31.139Z,24.80
2019-01-19T07:50:05.256Z,13.00
2019-01-19T07:52:36.952Z,17.60
2019-01-19T07:55:11.090Z,15.32
2019-01-19T07:57:42.934Z,18.82
2019-01-19T08:00:28.118Z,15.67
2019-01-19T08:02:59.838Z,16.77
2019-01-19T08:05:32.405Z,16.83
2019-01-19T08:08:04.043Z,19.33
2019-01-19T08:10:36.105Z,23.27
2019-01-19T08:13:07.900Z,18.10
2019-01-19T08:15:39.662Z,13.67
2019-01-19T08:18:11.728Z,17.67
2019-01-19T08:20:44.798Z,12.50
2019-01-19T08:23:17.441Z,11.15
2019-01-19T08:25:49.207Z,11.40
2019-01-19T08:28:20.875Z,11.87
2019-01-19T08:30:52.666Z,12.63
2019-01-19T08:33:24.475Z,11.77
2019-01-19T08:35:56.978Z,15.23
2019-01-19T08:38:28.630Z,11.70
2019-01-19T08:41:00.426Z,23.03
2019-01-19T08:43:37.821Z,24.67
2019-01-19T08:46:09.779Z,17.43
2019-01-19T08:48:41.579Z,23.13
2019-01-19T08:51:32.457Z,22.63
2019-01-19T08:54:12.457Z,18.67
2019-01-19T08:56:54.965Z,23.60
2019-01-19T08:59:45.258Z,19.40
2019-01-19T09:02:27.114Z,17.50
2019-01-19T09:05:19.148Z,22.00
2019-01-19T09:07:58.623Z,18.00
2019-01-19T09:10:34.800Z,14.70
2019-01-19T09:13:06.771Z,13.10
2019-01-19T09:15:39.293Z,12.47
2019-01-19T09:18:17.470Z,13.67
2019-01-19T09:20:54.992Z,19.17
2019-01-19T09:23:34.607Z,13.97
2019-01-19T09:26:06.706Z,14.70
2019-01-19T09:28:38.440Z,11.17
2019-01-19T09:31:10.405Z,11.30
2019-01-19T09:33:42.246Z,11.20
2019-01-19T09:36:14.040Z,12.30
2019-01-19T09:38:46.382Z,12.30
2019-01-19T09:41:18.081Z,12.57
2019-01-19T09:43:50.191Z,13.57
2019-01-19T09:46:22.859Z,9.93
2019-01-19T09:48:54.760Z,10.07
2019-01-19T09:51:26.808Z,15.33
2019-01-19T09:53:59.495Z,17.43
2019-01-19T09:56:31.295Z,14.40
2019-01-19T09:59:03.597Z,13.80
2019-01-19T10:01:35.385Z,13.20
2019-01-19T10:04:07.304Z,11.37
2019-01-19T10:06:39.486Z,12.13
2019-01-19T10:09:11.895Z,14.17
2019-01-19T10:11:43.647Z,12.77
2019-01-19T10:14:15.323Z,13.67
2019-01-19T10:16:47.044Z,11.17
2019-01-19T10:19:18.948Z,10.50
2019-01-19T10:21:50.631Z,10.83
2019-01-19T10:24:32.568Z,12.13
2019-01-19T10:27:04.346Z,12.00
2019-01-19T10:29:36.202Z,10.63
2019-01-19T10:32:07.850Z,9.97
2019-01-19T10:34:39.725Z,10.90
2019-01-19T10:37:11.465Z,9.80
2019-01-19T10:39:43.834Z,12.87
2019-01-19T10:42:15.603Z,14.90
2019-01-19T10:44:47.334Z,11.13
2019-01-19T10:47:18.963Z,8.23
2019-01-19T10:49:50.706Z,9.43
2019-01-19T10:52:22.428Z,10.60
2019-01-19T10:54:54.065Z,10.83
2019-01-19T10:57:27.189Z,11.07
2019-01-19T10:59:59.055Z,11.33
2019-01-19T11:02:30.785Z,12.23
2019-01-19T11:05:02.749Z,12.17
2019-01-19T11:07:34.884Z,11.17
2019-01-19T11:10:10.074Z,13.50
2019-01-19T11:12:42.440Z,12.60
2019-01-19T11:15:16.008Z,13.23
2019-01-19T11:17:47.738Z,13.17
2019-01-19T11:20:25.706Z,15.63
2019-01-19T11:22:58.785Z,13.43
2019-01-19T11:25:30.576Z,16.37
2019-01-19T11:28:03.128Z,13.57
2019-01-19T11:30:34.859Z,13.97
2019-01-19T11:33:06.848Z,14.80
2019-01-19T11:35:38.550Z,11.50
2019-01-19T11:38:11.974Z,12.60
2019-01-19T11:40:43.650Z,13.87
2019-01-19T11:43:16.055Z,11.37
2019-01-19T11:45:47.720Z,15.50
2019-01-19T11:48:19.377Z,16.60
2019-01-19T11:50:51.032Z,16.00
2019-01-19T11:53:23.005Z,15.13
2019-01-19T11:55:54.664Z,28.47
2019-01-19T11:58:28.684Z,21.37
2019-01-19T12:01:00.476Z,19.43
2019-01-19T12:03:32.252Z,23.20
2019-01-19T12:06:04.559Z,24.70
2019-01-19T12:08:36.766Z,22.60
2019-01-19T12:11:08.513Z,22.80
2019-01-19T12:13:40.882Z,15.90
2019-01-19T12:16:14.038Z,14.13
2019-01-19T12:18:45.786Z,15.00
2019-01-19T12:21:17.466Z,14.03
2019-01-19T12:23:49.257Z,12.57
2019-01-19T12:26:21.111Z,12.40
2019-01-19T12:28:53.911Z,11.40
2019-01-19T12:31:25.864Z,14.07
2019-01-19T12:33:57.647Z,12.27
2019-01-19T12:36:29.631Z,15.20
2019-01-19T12:39:01.299Z,13.43
2019-01-19T12:41:33.010Z,13.90
2019-01-19T12:44:05.039Z,13.53
2019-01-19T12:46:37.352Z,14.40
2019-01-19T12:49:09.155Z,17.97
2019-01-19T12:51:49.138Z,11.90
2019-01-19T12:54:23.017Z,19.03
2019-01-19T12:57:01.744Z,16.00
2019-01-19T12:59:35.149Z,10.70
2019-01-19T13:02:09.808Z,11.10
2019-01-19T13:04:43.189Z,10.00
2019-01-19T13:07:21.791Z,15.63
2019-01-19T13:10:13.736Z,15.20
2019-01-19T13:13:15.363Z,13.60
2019-01-19T13:16:41.291Z,13.27
2019-01-19T13:19:56.626Z,15.70
2019-01-19T13:23:16.168Z,12.07
2019-01-19T13:26:58.465Z,13.73
2019-01-19T13:30:35.395Z,15.80
2019-01-19T13:33:51.044Z,13.50
2019-01-19T13:37:05.348Z,13.57
2019-01-19T13:40:37.306Z,12.40
2019-01-19T13:44:13.500Z,15.47
2019-01-19T13:48:16.138Z,16.50
2019-01-19T13:51:44.999Z,13.70
2019-01-19T13:55:41.032Z,13.73
2019-01-19T13:58:57.716Z,11.13
2019-01-19T14:02:29.594Z,14.97
2019-01-19T14:05:55.047Z,14.90
2019-01-19T14:09:13.293Z,15.33
2019-01-19T14:12:40.181Z,19.70
2019-01-19T14:15:47.304Z,17.17
2019-01-19T14:19:02.923Z,16.90
2019-01-19T14:22:38.135Z,20.50
2019-01-19T14:26:36.422Z,21.60
2019-01-19T14:30:11.414Z,15.23
2019-01-19T14:33:41.784Z,17.67
2019-01-19T14:37:18.416Z,12.60
2019-01-19T14:40:35.789Z,15.90
2019-01-19T14:44:00.777Z,12.97
2019-01-19T14:47:16.890Z,15.27
2019-01-19T14:50:44.297Z,15.23
2019-01-19T14:54:45.575Z,22.70
2019-01-19T14:57:37.416Z,15.83
2019-01-19T15:01:16.853Z,15.77
2019-01-19T15:04:52.033Z,12.97
2019-01-19T15:08:05.970Z,22.67
2019-01-19T15:11:31.172Z,15.60
2019-01-19T15:15:32.970Z,21.70
2019-01-19T15:19:08.629Z,16.20
2019-01-19T15:22:21.628Z,17.43
2019-01-19T15:25:48.718Z,26.50
2019-01-19T15:29:29.030Z,29.17
2019-01-19T15:32:43.214Z,22.47
2019-01-19T15:36:23.050Z,16.47
2019-01-19T15:40:02.257Z,17.60
2019-01-19T15:43:05.883Z,18.00
2019-01-19T15:46:29.896Z,17.67
2019-01-19T15:49:56.806Z,16.53
2019-01-19T15:54:05.019Z,15.30
2019-01-19T15:57:22.964Z,21.80
2019-01-19T16:00:34.223Z,62.07
2019-01-19T16:04:04.419Z,33.70
2019-01-19T16:07:44.837Z,21.60
2019-01-19T16:11:03.916Z,17.23
2019-01-19T16:14:30.090Z,16.27
2019-01-19T16:17:50.516Z,15.10
2019-01-19T16:22:05.173Z,20.17
2019-01-19T16:25:26.157Z,18.03
2019-01-19T16:28:46.685Z,21.43
2019-01-19T16:32:14.707Z,18.20
2019-01-19T16:35:38.843Z,16.73
2019-01-19T16:39:11.745Z,18.37
2019-01-19T16:42:41.390Z,19.67
2019-01-19T16:46:15.805Z,18.23
2019-01-19T16:49:58.651Z,24.07
2019-01-19T16:53:28.964Z,21.10
2019-01-19T16:57:02.038Z,17.40
2019-01-19T17:00:33.845Z,22.40
2019-01-19T17:04:01.597Z,19.47
2019-01-19T17:07:11.356Z,19.17
2019-01-19T17:10:19.741Z,19.67
2019-01-19T17:13:38.337Z,19.90
2019-01-19T17:17:18.845Z,20.53
2019-01-19T17:20:24.167Z,18.67
2019-01-19T17:23:31.259Z,19.07
2019-01-19T17:27:13.614Z,24.00
2019-01-19T17:34:52.325Z,26.03
2019-01-19T17:37:46.876Z,22.97
2019-01-19T17:41:18.156Z,23.87
2019-01-19T17:44:22.145Z,26.03
2019-01-19T17:47:41.098Z,16.83
2019-01-19T17:50:54.809Z,20.07
2019-01-19T17:54:23.615Z,23.60
2019-01-19T17:57:39.022Z,21.40
2019-01-19T18:01:11.181Z,22.40
2019-01-19T18:04:21.908Z,28.30
2019-01-19T18:08:19.734Z,26.13
2019-01-19T18:11:58.581Z,28.87
2019-01-19T18:15:54.975Z,26.37
2019-01-19T18:19:15.271Z,21.37
2019-01-19T18:22:56.059Z,22.30
2019-01-19T18:26:43.691Z,19.10
2019-01-19T18:30:10.803Z,22.50
2019-01-19T18:33:52.852Z,24.93
2019-01-19T18:37:05.399Z,21.33
2019-01-19T18:40:23.798Z,23.67
2019-01-19T18:43:36.888Z,20.80
2019-01-19T18:47:42.690Z,18.30
2019-01-19T18:51:26.747Z,21.80
2019-01-19T18:55:10.422Z,22.33
2019-01-19T18:58:54.531Z,20.60
2019-01-19T19:02:22.382Z,22.80
2019-01-19T19:06:10.233Z,20.93
2019-01-19T19:09:32.676Z,18.37
2019-01-19T19:12:52.149Z,22.87
2019-01-19T19:16:21.255Z,20.47
2019-01-19T19:19:53.619Z,20.60
2019-01-19T19:23:51.676Z,19.00
2019-01-19T19:27:21.385Z,19.83
2019-01-19T19:30:40.653Z,19.83
2019-01-19T19:33:48.874Z,24.53
2019-01-19T19:36:52.377Z,28.63
2019-01-19T19:40:09.690Z,26.63
2019-01-19T19:43:08.954Z,27.33
2019-01-19T19:46:52.055Z,23.60
2019-01-19T19:50:32.835Z,24.73
2019-01-19T19:53:04.717Z,21.50
2019-01-19T19:55:34.483Z,27.77
2019-01-19T19:58:06.517Z,23.70
2019-01-19T20:00:38.661Z,29.97
2019-01-19T20:03:11.629Z,29.40
2019-01-19T20:05:43.448Z,25.47
2019-01-19T20:08:16.908Z,35.90
2019-01-19T20:10:48.794Z,32.37
2019-01-19T20:13:20.979Z,33.37
2019-01-19T20:15:52.801Z,42.07
2019-01-19T20:18:24.817Z,40.47
2019-01-19T20:20:56.596Z,35.77
2019-01-19T20:23:28.408Z,32.87
2019-01-19T20:26:01.222Z,31.93
2019-01-19T20:28:33.589Z,26.93
2019-01-19T20:31:05.640Z,29.60
2019-01-19T20:33:37.424Z,26.70
2019-01-19T20:36:12.232Z,32.47
2019-01-19T20:38:44.574Z,30.33
2019-01-19T20:41:16.363Z,32.20
2019-01-19T20:43:49.178Z,26.20
2019-01-19T20:46:20.990Z,33.10
2019-01-19T20:48:52.936Z,31.20
2019-01-19T20:51:25.245Z,29.73
2019-01-19T20:53:57.376Z,32.60
2019-01-19T20:56:29.583Z,26.87
2019-01-19T20:59:02.454Z,30.90
2019-01-19T21:01:34.339Z,30.30
2019-01-19T21:04:06.302Z,33.47
2019-01-19T21:06:38.040Z,35.37
2019-01-19T21:09:12.060Z,29.17
2019-01-19T21:11:43.806Z,29.27
2019-01-19T21:14:16.010Z,34.67
2019-01-19T21:16:49.126Z,29.10
2019-01-19T21:19:21.018Z,42.93
2019-01-19T21:21:52.915Z,31.77
2019-01-19T21:24:24.669Z,32.07
2019-01-19T21:26:56.422Z,35.83
2019-01-19T21:29:28.710Z,33.40
2019-01-19T21:32:00.564Z,37.90
2019-01-19T21:34:32.269Z,33.97
2019-01-19T21:37:04.094Z,33.13
2019-01-19T21:39:35.858Z,29.03
2019-01-19T21:42:07.610Z,30.90
2019-01-19T21:44:39.764Z,33.97
2019-01-19T21:47:11.542Z,28.63
2019-01-19T21:49:43.331Z,28.60
2019-01-19T21:52:15.231Z,27.10
2019-01-19T21:54:47.121Z,25.57
2019-01-19T21:57:18.838Z,31.13
2019-01-19T21:59:51.841Z,33.83
2019-01-19T22:02:23.581Z,31.60
2019-01-19T22:04:55.337Z,33.40
2019-01-19T22:07:27.077Z,29.97
2019-01-19T22:09:59.114Z,29.83
2019-01-19T22:12:32.664Z,30.17
2019-01-19T22:15:05.830Z,31.03
2019-01-19T22:17:39.818Z,30.73
2019-01-19T22:20:13.086Z,30.90
2019-01-19T22:22:44.780Z,32.17
2019-01-19T22:25:16.639Z,27.90
2019-01-19T22:27:49.660Z,27.77
2019-01-19T22:30:24.197Z,33.20
2019-01-19T22:32:57.544Z,33.90
2019-01-19T22:35:30.439Z,34.87
2019-01-19T22:38:03.226Z,34.90
2019-01-19T22:40:35.036Z,38.27
2019-01-19T22:43:10.412Z,35.47
2019-01-19T22:45:42.249Z,29.20
2019-01-19T22:48:14.383Z,37.03
2019-01-19T22:50:46.127Z,31.53
2019-01-19T22:53:17.847Z,35.57
2019-01-19T22:55:50.098Z,30.27
2019-01-19T22:58:22.650Z,33.40
2019-01-19T23:01:24.937Z,30.47
2019-01-19T23:03:57.194Z,32.43
2019-01-19T23:06:30.281Z,34.80
2019-01-19T23:09:02.064Z,34.70
2019-01-19T23:11:34.172Z,32.77
2019-01-19T23:14:08.469Z,32.00
2019-01-19T23:16:40.893Z,34.30
2019-01-19T23:19:12.951Z,32.50
2019-01-19T23:21:44.626Z,37.43
2019-01-19T23:24:16.299Z,43.50
2019-01-19T23:26:48.339Z,44.13
2019-01-19T23:29:19.995Z,35.90
2019-01-19T23:31:51.672Z,38.70
2019-01-19T23:34:23.705Z,42.33
2019-01-19T23:36:55.332Z,43.23
2019-01-19T23:39:27.012Z,41.00
2019-01-19T23:41:58.634Z,43.67
2019-01-19T23:44:31.100Z,50.77
2019-01-19T23:47:02.788Z,51.03
2019-01-19T23:49:34.823Z,51.70
2019-01-19T23:52:06.931Z,94.33
2019-01-19T23:54:38.577Z,78.20
2019-01-19T23:57:10.296Z,47.43
2019-01-19T23:59:41.963Z,47.17
